Time;durP1;ratioP1;P1;durP2;ratioP2;P2;SDS_P1;SDS_P2;PMS_P1;PMS_P2;Temp;Humidity;BMP_temperature;BMP_pressure;BME280_temperature;BME280_humidity;BME280_pressure;Samples;Min_cycle;Max_cycle;Signal;HPM_P1;HPM_P2
2022/04/22 00:02:24;;;;;;;;;12.00;10.00;;;;;14.69;48.92;100163.31;5064675;28;45439;-69
2022/04/22 00:04:49;;;;;;;;;11.00;9.33;;;;;14.63;47.85;100153.16;5068415;28;45272;-70
2022/04/22 00:07:15;;;;;;;;;12.33;9.33;;;;;14.66;47.56;100152.78;5072352;28;45531;-69
2022/04/22 00:09:40;;;;;;;;;9.00;8.00;;;;;14.65;49.13;100159.28;5069110;28;45582;-68
2022/04/22 00:12:06;;;;;;;;;9.33;9.00;;;;;14.53;48.65;100168.16;5067743;28;45396;-68
2022/04/22 00:14:32;;;;;;;;;11.67;9.67;;;;;14.49;49.72;100162.19;5070972;28;45424;-69
2022/04/22 00:16:57;;;;;;;;;13.00;12.00;;;;;14.37;49.89;100164.53;5064180;28;45430;-68
2022/04/22 00:19:23;;;;;;;;;10.67;10.67;;;;;14.26;50.39;100166.84;5073177;27;45396;-68
2022/04/22 00:21:48;;;;;;;;;10.67;9.33;;;;;14.23;50.35;100157.16;5062491;28;45433;-69
2022/04/22 00:24:15;;;;;;;;;14.00;12.33;;;;;14.23;51.12;100167.25;5073027;27;45298;-69
2022/04/22 00:26:40;;;;;;;;;10.00;10.00;;;;;14.21;50.43;100159.22;5062889;28;45906;-68
2022/04/22 00:29:06;;;;;;;;;10.67;9.67;;;;;14.14;50.67;100162.88;5074798;27;47085;-68
2022/04/22 00:31:31;;;;;;;;;10.67;10.67;;;;;14.12;50.67;100154.03;5060739;28;45246;-69
2022/04/22 00:33:57;;;;;;;;;11.00;10.00;;;;;14.16;50.18;100163.56;5071160;28;45474;-68
2022/04/22 00:36:23;;;;;;;;;11.33;9.33;;;;;14.14;50.01;100160.16;5073394;28;45349;-69
2022/04/22 00:38:48;;;;;;;;;9.00;8.67;;;;;14.14;50.33;100162.88;5067602;28;45869;-68
2022/04/22 00:41:13;;;;;;;;;9.00;9.00;;;;;14.13;50.43;100161.19;5072846;27;45383;-69
2022/04/22 00:43:44;;;;;;;;;12.00;12.00;;;;;14.15;49.99;100159.97;5070879;28;45338;-69
2022/04/22 00:46:10;;;;;;;;;10.00;10.00;;;;;14.17;50.73;100159.78;5062859;28;45273;-68
2022/04/22 00:48:36;;;;;;;;;10.33;9.00;;;;;14.17;50.40;100146.13;5069176;28;46307;-69
2022/04/22 00:51:06;;;;;;;;;8.67;8.67;;;;;14.14;49.99;100154.69;5070605;28;45440;-69
2022/04/22 00:53:34;;;;;;;;;11.33;8.67;;;;;14.18;50.84;100154.13;5068466;28;45363;-68
2022/04/22 00:56:02;;;;;;;;;10.67;10.00;;;;;14.08;51.29;100155.44;5069944;28;45434;-68
2022/04/22 00:58:28;;;;;;;;;9.33;9.33;;;;;14.04;51.03;100152.22;5067518;28;47292;-68
2022/04/22 01:00:53;;;;;;;;;13.00;13.00;;;;;13.97;51.99;100154.00;5068856;28;45414;-68
2022/04/22 01:03:18;;;;;;;;;8.00;8.00;;;;;13.82;51.18;100131.25;5068660;28;45418;-68
2022/04/22 01:11:13;;;;;;;;;9.33;8.00;;;;;13.87;51.77;100137.88;5061287;28;45503;-69
2022/04/22 01:13:39;;;;;;;;;12.00;10.00;;;;;13.85;51.57;100139.09;5072678;28;45306;-68
2022/04/22 01:16:04;;;;;;;;;11.33;9.33;;;;;13.86;51.49;100136.19;5061979;27;45552;-68
2022/04/22 01:18:29;;;;;;;;;11.00;9.67;;;;;13.79;51.89;100121.56;5068974;28;48433;-68
2022/04/22 01:21:03;;;;;;;;;14.33;13.67;;;;;13.77;51.53;100123.63;5080184;28;45489;-68
2022/04/22 01:23:28;;;;;;;;;9.00;9.00;;;;;13.76;52.55;100132.84;5078825;27;48017;-68
2022/04/22 01:25:56;;;;;;;;;11.00;9.67;;;;;13.69;52.94;100131.03;5066103;27;45268;-69
2022/04/22 01:28:21;;;;;;;;;10.33;9.00;;;;;13.67;53.37;100133.09;5077312;27;46598;-68
2022/04/22 01:30:48;;;;;;;;;12.67;10.00;;;;;13.59;52.99;100134.00;5067231;28;45349;-68
2022/04/22 01:33:13;;;;;;;;;9.33;8.33;;;;;13.53;53.44;100121.09;5072424;28;45391;-68
2022/04/22 01:35:39;;;;;;;;;12.33;10.33;;;;;13.47;53.52;100121.81;5080485;28;45401;-68
2022/04/22 01:38:04;;;;;;;;;10.67;10.67;;;;;13.45;53.65;100122.00;5069258;28;47209;-68
2022/04/22 01:40:30;;;;;;;;;11.00;9.00;;;;;13.39;54.38;100124.59;5076993;28;45397;-68
2022/04/22 01:42:55;;;;;;;;;6.67;6.67;;;;;13.38;54.25;100123.75;5069873;28;45231;-69
2022/04/22 01:45:21;;;;;;;;;14.00;12.00;;;;;13.40;53.64;100118.13;5080479;27;45334;-69
2022/04/22 01:47:46;;;;;;;;;10.33;9.00;;;;;13.35;53.68;100115.09;5069908;28;45788;-68
2022/04/22 01:50:12;;;;;;;;;10.33;8.33;;;;;13.34;54.03;100116.13;5075058;28;45245;-69
2022/04/22 01:52:39;;;;;;;;;12.33;10.67;;;;;13.28;53.91;100111.41;5064487;28;45373;-69
2022/04/22 01:55:05;;;;;;;;;11.67;11.33;;;;;13.24;53.89;100106.31;5073691;28;45586;-68
2022/04/22 01:57:30;;;;;;;;;9.00;7.67;;;;;13.28;54.01;100119.59;5066390;28;45472;-69
2022/04/22 01:59:58;;;;;;;;;9.67;9.67;;;;;13.23;54.07;100110.06;5076245;28;45386;-68
2022/04/22 02:02:23;;;;;;;;;16.00;11.00;;;;;13.26;53.37;100108.84;5066692;28;45322;-68
2022/04/22 02:04:48;;;;;;;;;13.67;12.00;;;;;13.22;54.22;100108.34;5073838;28;45600;-69
2022/04/22 02:07:14;;;;;;;;;14.67;11.67;;;;;13.31;53.28;100113.75;5066519;28;45537;-69
2022/04/22 02:09:39;;;;;;;;;10.00;10.00;;;;;13.29;52.83;100102.19;5067346;28;45684;-68
2022/04/22 02:12:05;;;;;;;;;12.67;11.67;;;;;13.24;53.73;100100.84;5066810;28;45413;-68
2022/04/22 02:14:31;;;;;;;;;11.00;10.33;;;;;13.23;53.83;100101.88;5073364;28;45469;-68
2022/04/22 02:16:56;;;;;;;;;10.00;10.00;;;;;13.14;54.73;100102.13;5065133;28;45393;-69
2022/04/22 02:19:22;;;;;;;;;11.00;9.67;;;;;13.03;55.50;100105.22;5075961;27;45468;-68
2022/04/22 02:21:49;;;;;;;;;11.67;10.00;;;;;13.01;54.20;100099.94;5064285;28;45313;-69
2022/04/22 02:24:15;;;;;;;;;10.33;9.00;;;;;13.01;54.69;100102.66;5073828;28;45272;-68
2022/04/22 02:29:24;;;;;;;;;10.33;7.33;;;;;12.86;54.85;100097.13;5077772;27;45370;-69
2022/04/22 02:31:53;;;;;;;;;14.00;12.33;;;;;12.90;54.61;100103.09;5062101;28;45325;-68
2022/04/22 02:34:22;;;;;;;;;10.67;8.67;;;;;12.90;54.60;100103.09;5074800;27;45538;-69
2022/04/22 02:36:48;;;;;;;;;15.33;13.33;;;;;12.95;54.50;100099.81;5063876;28;45472;-68
2022/04/22 02:39:14;;;;;;;;;13.33;10.00;;;;;12.96;54.03;100087.88;5067411;28;45287;-68
2022/04/22 02:47:08;;;;;;;;;9.67;8.00;;;;;12.96;53.92;100085.16;5068934;28;45677;-68
2022/04/22 02:49:34;;;;;;;;;11.33;9.33;;;;;12.98;54.17;100092.13;5076818;28;45600;-68
2022/04/22 02:51:59;;;;;;;;;8.67;8.67;;;;;12.94;53.88;100085.31;5068306;28;45711;-69
2022/04/22 02:54:25;;;;;;;;;15.00;13.25;;;;;12.88;54.61;100080.59;5075018;27;45385;-70
2022/04/22 02:56:51;;;;;;;;;10.67;10.67;;;;;12.94;53.89;100079.88;5065241;27;47733;-68
2022/04/22 02:59:20;;;;;;;;;10.33;10.00;;;;;12.88;54.55;100083.31;5073624;27;45414;-68
2022/04/22 03:01:46;;;;;;;;;12.33;10.33;;;;;12.86;54.21;100075.31;5079082;28;45275;-68
2022/04/22 03:04:12;;;;;;;;;8.00;8.00;;;;;12.87;53.94;100078.91;5072544;28;45291;-69
2022/04/22 03:06:37;;;;;;;;;11.00;10.00;;;;;12.78;54.12;100072.63;5075361;27;45349;-68
2022/04/22 03:09:03;;;;;;;;;14.33;13.00;;;;;12.79;54.67;100071.59;5066856;28;45417;-68
2022/04/22 03:11:29;;;;;;;;;13.33;11.00;;;;;12.75;54.63;100083.06;5076322;28;45339;-68
2022/04/22 03:13:54;;;;;;;;;15.00;13.67;;;;;12.71;54.91;100068.09;5067617;28;45243;-68
2022/04/22 03:16:24;;;;;;;;;11.33;10.67;;;;;12.78;54.43;100075.34;5066049;27;45423;-68
2022/04/22 03:18:49;;;;;;;;;10.00;9.67;;;;;12.75;54.69;100066.72;5076617;28;45381;-69
2022/04/22 03:21:15;;;;;;;;;11.67;11.67;;;;;12.75;54.24;100066.72;5060979;28;45580;-67
2022/04/22 03:23:40;;;;;;;;;14.00;13.00;;;;;12.79;54.22;100077.06;5074387;28;45429;-68
2022/04/22 03:26:07;;;;;;;;;12.00;12.00;;;;;12.76;54.52;100077.44;5064145;28;47104;-67
2022/04/22 03:28:32;;;;;;;;;17.75;11.25;;;;;12.64;54.46;100058.94;5077284;27;45329;-68
2022/04/22 03:30:58;;;;;;;;;14.75;13.00;;;;;12.70;54.91;100072.69;5065155;28;45176;-67
2022/04/22 03:33:23;;;;;;;;;15.75;13.50;;;;;12.70;54.76;100071.84;5071909;28;45465;-67
2022/04/22 03:35:50;;;;;;;;;11.67;10.00;;;;;12.65;55.89;100069.66;5065382;27;45684;-69
2022/04/22 03:38:19;;;;;;;;;15.00;12.33;;;;;12.52;56.05;100076.69;5067923;28;45445;-69
2022/04/22 03:40:45;;;;;;;;;14.00;12.33;;;;;12.45;55.46;100074.69;5074532;28;45342;-67
2022/04/22 03:43:10;;;;;;;;;21.00;16.50;;;;;12.41;56.22;100075.22;5068366;28;45730;-67
2022/04/22 03:45:36;;;;;;;;;20.75;17.50;;;;;12.40;56.02;100068.94;5074557;28;45396;-67
2022/04/22 03:48:05;;;;;;;;;18.00;15.00;;;;;12.36;56.62;100070.28;5066678;28;45399;-68
2022/04/22 03:50:30;;;;;;;;;13.25;11.00;;;;;12.35;56.30;100059.56;5076264;27;45452;-70
2022/04/22 03:52:55;;;;;;;;;14.50;14.50;;;;;12.29;56.66;100066.56;5067985;28;45411;-67
2022/04/22 03:55:21;;;;;;;;;14.75;14.75;;;;;12.31;56.29;100064.53;5072072;28;45382;-67
2022/04/22 04:00:32;;;;;;;;;13.75;12.25;;;;;12.30;55.89;100059.25;5075297;28;45486;-69
2022/04/22 04:02:57;;;;;;;;;16.50;14.25;;;;;12.35;56.24;100073.19;5076027;27;45623;-69
2022/04/22 04:05:22;;;;;;;;;16.50;15.25;;;;;12.31;56.04;100059.09;5068851;28;45379;-69
2022/04/22 04:07:48;;;;;;;;;15.50;15.50;;;;;12.32;55.30;100058.06;5065608;28;45416;-69
2022/04/22 04:16:02;;;;;;;;;22.75;21.50;;;;;12.32;55.96;100055.34;5070231;28;45516;-68
2022/04/22 04:18:30;;;;;;;;;29.00;27.25;;;;;12.15;56.16;100042.78;5077775;27;45426;-68
2022/04/22 04:23:40;;;;;;;;;44.75;36.00;;;;;12.16;56.62;100060.84;5067211;28;45416;-68
2022/04/22 04:26:07;;;;;;;;;49.25;39.75;;;;;12.19;56.64;100054.19;5076615;28;45452;-69
2022/04/22 04:28:34;;;;;;;;;50.25;42.25;;;;;12.13;56.65;100054.91;5072325;27;45437;-69
2022/04/22 04:30:59;;;;;;;;;55.00;44.75;;;;;12.10;56.86;100053.38;5074589;27;45375;-69
2022/04/22 04:33:25;;;;;;;;;51.50;43.00;;;;;12.02;57.39;100042.50;5075203;27;45623;-69
2022/04/22 04:35:51;;;;;;;;;51.75;43.75;;;;;12.07;56.94;100043.66;5079209;28;46980;-69
2022/04/22 04:38:17;;;;;;;;;51.50;42.00;;;;;12.06;56.78;100050.13;5068399;28;45447;-70
2022/04/22 04:40:44;;;;;;;;;50.50;44.25;;;;;12.06;56.98;100049.28;5071565;27;45330;-68
2022/04/22 04:43:10;;;;;;;;;53.50;43.00;;;;;12.05;57.24;100047.63;5067595;27;45495;-68
2022/04/22 04:45:36;;;;;;;;;49.75;40.50;;;;;11.99;57.25;100046.41;5064027;28;46400;-69
2022/04/22 04:48:02;;;;;;;;;52.50;41.00;;;;;11.97;57.25;100045.75;5066385;28;45101;-68
2022/04/22 04:50:28;;;;;;;;;51.50;40.50;;;;;12.04;57.11;100052.22;5074923;28;45566;-68
2022/04/22 04:52:54;;;;;;;;;45.00;38.50;;;;;12.01;56.95;100040.81;5073333;28;45617;-68
2022/04/22 04:55:19;;;;;;;;;46.50;41.50;;;;;12.08;57.48;100052.69;5072983;28;45377;-68
2022/04/22 04:57:45;;;;;;;;;39.25;35.50;;;;;12.00;56.87;100033.66;5067703;28;45289;-68
2022/04/22 05:00:11;;;;;;;;;44.75;37.00;;;;;12.08;56.96;100042.66;5073998;28;45446;-67
2022/04/22 05:02:37;;;;;;;;;39.00;35.50;;;;;12.07;56.60;100035.50;5068047;28;45341;-69
2022/04/22 05:05:05;;;;;;;;;44.25;34.00;;;;;12.11;56.64;100038.75;5076202;28;47109;-69
2022/04/22 05:07:31;;;;;;;;;38.00;32.75;;;;;12.07;57.12;100040.94;5068661;27;45983;-69
2022/04/22 05:09:57;;;;;;;;;32.50;31.75;;;;;12.05;57.12;100036.72;5068360;28;45411;-71
2022/04/22 05:12:22;;;;;;;;;32.00;27.75;;;;;12.04;56.75;100029.56;5070300;28;45621;-68
2022/04/22 05:14:47;;;;;;;;;29.75;24.75;;;;;12.06;57.18;100032.94;5071092;28;45828;-67
2022/04/22 05:17:13;;;;;;;;;34.75;29.50;;;;;12.07;57.77;100040.09;5065258;28;45647;-68
2022/04/22 05:19:38;;;;;;;;;16.75;16.75;;;;;12.05;57.00;100031.28;5073361;28;45582;-68
2022/04/22 05:22:04;;;;;;;;;21.50;18.75;;;;;12.16;56.77;100030.03;5064530;28;45520;-68
2022/04/22 05:24:31;;;;;;;;;23.50;20.75;;;;;12.22;56.20;100030.16;5072995;28;47191;-68
2022/04/22 05:26:59;;;;;;;;;21.75;18.75;;;;;12.32;55.91;100039.00;5063685;28;45459;-68
2022/04/22 05:34:54;;;;;;;;;17.00;17.00;;;;;12.52;55.41;100041.28;5081581;28;45700;-68
2022/04/22 05:37:19;;;;;;;;;21.75;21.00;;;;;12.55;55.61;100030.88;5068120;27;45605;-68
2022/04/22 05:39:45;;;;;;;;;19.25;18.00;;;;;12.59;55.62;100029.47;5075064;27;45331;-69
2022/04/22 05:42:10;;;;;;;;;18.25;17.00;;;;;12.66;55.43;100037.78;5070428;27;45410;-68
2022/04/22 05:44:35;;;;;;;;;18.50;18.00;;;;;12.72;55.54;100034.34;5077432;28;46101;-68
2022/04/22 05:47:01;;;;;;;;;20.00;18.50;;;;;12.73;55.40;100034.16;5068754;27;45333;-69
2022/04/22 05:49:27;;;;;;;;;17.75;14.50;;;;;12.72;54.64;100020.72;5075409;27;45326;-69
2022/04/22 05:51:54;;;;;;;;;19.00;16.00;;;;;12.82;55.50;100043.16;5067082;27;45280;-69
2022/04/22 05:54:20;;;;;;;;;18.00;18.00;;;;;12.83;55.04;100036.69;5076120;27;47340;-69
2022/04/22 05:56:45;;;;;;;;;14.75;14.75;;;;;12.90;54.75;100037.66;5067572;27;45504;-69
2022/04/22 05:59:10;;;;;;;;;18.50;15.50;;;;;13.01;54.55;100039.09;5076465;28;45454;-69
2022/04/22 06:01:36;;;;;;;;;18.67;15.00;;;;;13.07;54.51;100032.94;5068651;27;45379;-68
2022/04/22 06:04:01;;;;;;;;;17.00;15.75;;;;;13.37;54.09;100042.13;5066239;28;46985;-68
2022/04/22 06:06:26;;;;;;;;;18.25;16.25;;;;;13.54;53.78;100049.94;5065742;28;45366;-68
2022/04/22 06:11:36;;;;;;;;;14.75;14.25;;;;;14.07;52.27;100049.94;5065705;28;45348;-68
2022/04/22 06:14:01;;;;;;;;;17.25;14.75;;;;;13.86;52.55;100051.53;5071380;28;47228;-68
2022/04/22 06:16:27;;;;;;;;;15.00;15.00;;;;;13.74;52.69;100054.88;5062955;28;45531;-68
2022/04/22 06:18:52;;;;;;;;;9.75;9.75;;;;;13.71;52.68;100050.66;5076385;28;45354;-69
2022/04/22 06:21:18;;;;;;;;;18.50;18.50;;;;;13.72;53.37;100052.34;5080504;28;45328;-68
2022/04/22 06:23:43;;;;;;;;;15.75;15.75;;;;;13.83;53.09;100054.63;5076733;27;45649;-70
2022/04/22 06:26:08;;;;;;;;;28.00;21.75;;;;;13.85;53.00;100043.53;5063326;27;45488;-68
2022/04/22 06:28:34;;;;;;;;;20.75;17.00;;;;;13.92;52.69;100045.31;5077153;27;45471;-69
2022/04/22 06:31:00;;;;;;;;;17.00;17.00;;;;;15.05;51.01;100043.00;5064887;27;45364;-69
2022/04/22 06:33:26;;;;;;;;;19.75;16.25;;;;;15.01;49.96;100044.44;5069340;28;46401;-70
2022/04/22 06:35:52;;;;;;;;;21.00;16.00;;;;;14.72;50.54;100039.91;5062427;28;45311;-68
2022/04/22 06:38:18;;;;;;;;;21.75;17.25;;;;;14.56;50.82;100039.28;5067888;28;45453;-71
2022/04/22 06:46:16;;;;;;;;;22.00;15.50;;;;;14.60;51.56;100044.19;5061787;28;45245;-70
2022/04/22 06:48:43;;;;;;;;;17.75;17.75;;;;;14.65;51.45;100033.53;5068793;28;45543;-70
2022/04/22 06:51:09;;;;;;;;;19.75;16.75;;;;;14.64;50.60;100012.69;5072641;28;45345;-70
2022/04/22 06:53:36;;;;;;;;;17.50;17.00;;;;;14.77;51.35;100029.22;5085111;27;47571;-70
2022/04/22 06:56:04;;;;;;;;;18.50;15.50;;;;;14.87;50.68;100039.88;5070377;28;45731;-70
2022/04/22 06:58:37;;;;;;;;;14.50;14.50;;;;;14.85;50.88;100038.34;5069680;28;45272;-70
2022/04/22 07:01:03;;;;;;;;;17.00;15.33;;;;;14.94;50.74;100031.72;5070569;28;45728;-70
2022/04/22 07:03:29;;;;;;;;;16.50;16.50;;;;;14.99;50.52;100034.72;5066669;28;47589;-69
2022/04/22 07:05:54;;;;;;;;;18.25;15.00;;;;;14.99;50.52;100032.00;5069367;28;45203;-70
2022/04/22 07:08:21;;;;;;;;;14.67;14.67;;;;;14.98;50.86;100027.56;5065751;27;45303;-69
2022/04/22 07:10:49;;;;;;;;;16.50;15.50;;;;;14.97;50.66;100025.88;5068428;28;45579;-70
2022/04/22 07:13:16;;;;;;;;;18.25;15.75;;;;;15.07;50.93;100016.31;5068910;28;46454;-69
2022/04/22 07:15:47;;;;;;;;;17.75;15.25;;;;;15.18;50.62;100025.91;5067173;27;45256;-70
2022/04/22 07:18:13;;;;;;;;;13.00;10.00;;;;;15.22;50.43;100026.34;5070815;28;45505;-70
2022/04/22 07:20:39;;;;;;;;;17.25;15.75;;;;;15.33;50.05;100023.94;5070469;27;45576;-69
2022/04/22 07:23:05;;;;;;;;;19.25;15.00;;;;;15.34;49.62;100020.13;5068279;28;45634;-69
2022/04/22 07:25:30;;;;;;;;;18.25;14.50;;;;;15.43;49.38;100018.94;5068302;27;45338;-70
2022/04/22 07:27:56;;;;;;;;;18.67;15.67;;;;;15.48;49.10;100012.91;5074100;27;45409;-70
2022/04/22 07:30:23;;;;;;;;;18.00;17.25;;;;;15.47;48.78;100019.41;5077423;27;45695;-70
2022/04/22 07:32:49;;;;;;;;;16.00;15.00;;;;;15.51;49.38;100020.72;5067365;28;45474;-70
2022/04/22 07:35:20;;;;;;;;;14.50;14.00;;;;;15.64;49.24;100014.50;5075196;28;45302;-69
2022/04/22 07:37:51;;;;;;;;;22.25;18.00;;;;;15.83;48.99;100019.31;5065051;28;45322;-69
2022/04/22 07:40:21;;;;;;;;;19.00;16.50;;;;;15.81;48.59;100021.41;5079651;27;45547;-69
2022/04/22 07:48:23;;;;;;;;;18.25;18.25;;;;;16.05;47.90;100017.34;5069114;28;45349;-68
2022/04/22 07:50:49;;;;;;;;;18.00;15.50;;;;;16.10;48.21;100004.72;5072080;28;45517;-68
2022/04/22 07:53:16;;;;;;;;;20.75;14.25;;;;;16.20;47.67;100010.69;5068985;28;45395;-69
2022/04/22 07:55:42;;;;;;;;;20.00;17.00;;;;;16.43;47.65;100006.78;5068230;28;45330;-69
2022/04/22 07:58:10;;;;;;;;;16.50;16.50;;;;;16.62;47.27;100008.78;5068088;28;45326;-70
2022/04/22 08:00:37;;;;;;;;;16.33;15.00;;;;;16.70;46.52;100012.22;5068897;28;45514;-69
2022/04/22 08:03:04;;;;;;;;;13.25;13.25;;;;;16.80;46.46;100022.78;5064607;28;47059;-69
2022/04/22 08:05:29;;;;;;;;;16.00;14.25;;;;;16.84;45.74;100013.09;5067827;28;45312;-70
2022/04/22 08:07:54;;;;;;;;;14.67;14.67;;;;;16.97;45.48;100004.03;5074897;27;45364;-69
2022/04/22 08:10:20;;;;;;;;;11.75;11.50;;;;;17.15;45.64;100012.53;5067679;28;45625;-69
2022/04/22 08:12:45;;;;;;;;;18.00;14.33;;;;;17.34;45.55;100014.44;5064884;28;45497;-69
2022/04/22 08:15:11;;;;;;;;;16.33;14.33;;;;;17.52;44.80;100003.69;5071247;27;45335;-69
2022/04/22 08:17:39;;;;;;;;;18.67;18.00;;;;;17.80;44.38;100013.63;5066956;28;45475;-69
2022/04/22 08:20:05;;;;;;;;;14.67;13.67;;;;;17.99;44.07;99992.66;5071891;28;45168;-69
2022/04/22 08:22:31;;;;;;;;;16.00;16.00;;;;;18.17;43.49;100006.59;5064633;28;47271;-69
2022/04/22 08:24:57;;;;;;;;;16.00;14.00;;;;;18.37;43.34;99999.13;5071121;28;45242;-69
2022/04/22 08:27:24;;;;;;;;;15.00;14.33;;;;;18.51;42.63;99995.25;5064364;28;45365;-69
2022/04/22 08:29:49;;;;;;;;;18.50;15.50;;;;;18.77;42.40;100002.56;5065111;28;45449;-68
2022/04/22 08:32:14;;;;;;;;;15.00;15.00;;;;;18.97;41.44;99999.72;5075827;28;47763;-68
2022/04/22 08:34:40;;;;;;;;;14.33;14.33;;;;;19.10;40.48;99991.34;5076854;27;45445;-69
2022/04/22 08:37:06;;;;;;;;;11.67;11.33;;;;;19.23;39.41;99990.41;5072137;28;45432;-69
2022/04/22 08:39:32;;;;;;;;;13.33;12.00;;;;;19.27;39.73;99977.91;5079486;27;45263;-70
2022/04/22 08:42:00;;;;;;;;;11.33;11.33;;;;;19.61;39.89;99979.34;5070706;27;45448;-71
2022/04/22 08:44:26;;;;;;;;;12.67;12.67;;;;;19.82;38.51;99976.16;5078271;27;45349;-69
2022/04/22 08:52:24;;;;;;;;;13.33;13.33;;;;;19.68;37.67;99971.84;5067666;28;45528;-69
2022/04/22 08:54:53;;;;;;;;;12.33;12.33;;;;;19.82;38.07;99965.13;5077099;28;45475;-69
2022/04/22 08:57:19;;;;;;;;;18.33;16.33;;;;;19.95;37.27;99967.75;5067257;28;45253;-70
2022/04/22 08:59:45;;;;;;;;;13.33;12.67;;;;;19.95;37.07;99970.50;5076096;28;45474;-69
2022/04/22 09:02:12;;;;;;;;;14.33;14.33;;;;;20.03;37.24;99966.59;5067528;28;45553;-71
2022/04/22 09:04:38;;;;;;;;;14.00;12.33;;;;;20.44;37.12;99977.84;5072484;27;45334;-70
2022/04/22 09:07:04;;;;;;;;;7.25;7.00;;;;;20.75;36.73;99982.28;5082249;28;45350;-70
2022/04/22 09:09:30;;;;;;;;;10.00;10.00;;;;;20.95;36.21;99971.00;5071644;27;45477;-71
2022/04/22 09:12:07;;;;;;;;;10.67;10.67;;;;;21.04;34.90;99964.03;5065178;28;45500;-70
2022/04/22 09:14:32;;;;;;;;;13.67;10.67;;;;;21.14;34.82;99971.75;5076887;28;45570;-71
2022/04/22 09:16:57;;;;;;;;;12.67;12.00;;;;;21.35;35.81;99960.19;5065073;28;45449;-70
2022/04/22 09:19:23;;;;;;;;;11.00;8.33;;;;;21.45;35.14;99949.41;5078607;27;45485;-70
2022/04/22 09:22:00;;;;;;;;;12.33;9.33;;;;;21.50;33.76;99960.56;5065266;28;46431;-70
2022/04/22 09:24:25;;;;;;;;;9.00;9.00;;;;;21.70;33.84;99962.97;5073223;28;45466;-70
2022/04/22 09:27:08;;;;;;;;;11.67;9.33;;;;;21.75;34.14;99954.81;5065016;28;45393;-71
2022/04/22 09:29:55;;;;;;;;;10.67;9.67;;;;;21.88;33.85;99954.56;5080835;27;45492;-70
2022/04/22 09:32:22;;;;;;;;;14.00;10.67;;;;;21.92;33.58;99954.91;5067037;28;46215;-70
2022/04/22 09:34:47;;;;;;;;;11.33;9.67;;;;;21.90;33.20;99957.09;5075158;27;45398;-70
2022/04/22 09:42:54;;;;;;;;;9.00;9.00;;;;;21.74;31.27;99939.31;5067136;28;45518;-70
2022/04/22 09:45:20;;;;;;;;;8.00;8.00;;;;;21.21;32.57;99954.03;5081427;27;45355;-70
2022/04/22 09:47:59;;;;;;;;;9.67;9.67;;;;;21.65;32.67;99944.34;5069276;28;45436;-71
2022/04/22 09:50:42;;;;;;;;;11.33;9.00;;;;;21.99;32.12;99930.81;5076651;28;45583;-71
2022/04/22 09:53:12;;;;;;;;;9.67;7.67;;;;;22.38;31.50;99946.59;5069382;28;45638;-71
2022/04/22 09:55:48;;;;;;;;;10.67;9.00;;;;;21.91;30.73;99936.66;5073687;27;45368;-71
2022/04/22 09:58:22;;;;;;;;;8.33;8.33;;;;;21.56;31.64;99945.78;5069047;28;45524;-70
2022/04/22 10:00:54;;;;;;;;;8.33;7.67;;;;;21.96;31.73;99939.53;5071938;28;45332;-71
2022/04/22 10:03:21;;;;;;;;;6.00;6.00;;;;;22.33;30.69;99942.88;5067304;28;46156;-71
2022/04/22 10:05:48;;;;;;;;;7.33;6.33;;;;;22.20;30.57;99938.47;5069822;28;45435;-71
2022/04/22 10:08:19;;;;;;;;;8.00;8.00;;;;;22.48;30.65;99927.44;5070582;28;45415;-71
2022/04/22 10:10:46;;;;;;;;;8.00;8.00;;;;;22.96;30.12;99937.22;5064477;28;45402;-70
2022/04/22 10:13:17;;;;;;;;;7.00;7.00;;;;;23.33;29.68;99939.53;5071284;28;46358;-71
2022/04/22 10:15:45;;;;;;;;;10.00;8.00;;;;;22.96;29.24;99931.69;5068681;27;45251;-69
2022/04/22 10:18:13;;;;;;;;;6.67;6.33;;;;;23.23;28.71;99921.63;5073766;28;45554;-70
2022/04/22 10:20:39;;;;;;;;;8.00;8.00;;;;;23.45;29.46;99923.69;5068175;27;45626;-70
2022/04/22 10:23:05;;;;;;;;;9.00;9.00;;;;;23.65;28.66;99927.66;5072452;28;47274;-71
2022/04/22 10:25:31;;;;;;;;;7.33;6.67;;;;;23.80;28.39;99926.22;5063490;28;45403;-71
2022/04/22 10:27:59;;;;;;;;;7.33;6.00;;;;;23.60;28.08;99912.84;5073550;27;45380;-71
2022/04/22 10:30:25;;;;;;;;;8.00;8.00;;;;;23.66;27.54;99922.94;5084497;27;45449;-71
2022/04/22 10:32:52;;;;;;;;;8.00;7.33;;;;;23.53;28.37;99906.63;5068979;27;45444;-71
2022/04/22 10:35:22;;;;;;;;;6.67;6.67;;;;;23.74;27.99;99903.09;5075592;28;45413;-70
2022/04/22 10:37:49;;;;;;;;;7.67;6.33;;;;;23.73;27.39;99903.34;5077571;27;45171;-70
2022/04/22 10:40:22;;;;;;;;;8.33;7.00;;;;;23.39;27.59;99910.81;5080153;27;45488;-70
2022/04/22 10:42:49;;;;;;;;;2.33;2.00;;;;;23.21;27.84;99900.84;5065870;28;46262;-69
2022/04/22 10:48:18;;;;;;;;;6.00;6.00;;;;;22.96;28.07;99894.84;5068723;28;45385;-70
2022/04/22 10:50:55;;;;;;;;;7.00;6.00;;;;;23.39;28.20;99905.28;5076093;28;45477;-70
2022/04/22 10:53:25;;;;;;;;;7.67;7.00;;;;;23.59;28.58;99911.19;5069971;28;45408;-70
2022/04/22 10:55:51;;;;;;;;;7.00;7.00;;;;;23.86;27.60;99912.16;5071729;28;45179;-70
2022/04/22 10:58:16;;;;;;;;;5.67;5.67;;;;;23.36;27.77;99911.34;5067995;28;45276;-70
2022/04/22 11:00:43;;;;;;;;;6.00;6.00;;;;;23.23;27.79;99902.25;5070850;28;45395;-71
2022/04/22 11:03:14;;;;;;;;;6.33;6.00;;;;;23.20;27.60;99896.38;5066535;28;46408;-70
2022/04/22 11:05:44;;;;;;;;;8.00;6.00;;;;;23.66;27.83;99895.22;5070455;28;45415;-69
2022/04/22 11:08:28;;;;;;;;;5.67;5.67;;;;;24.01;27.51;99883.78;5074903;27;45290;-71
2022/04/22 11:10:54;;;;;;;;;8.00;6.00;;;;;24.44;27.07;99897.69;5068356;28;45312;-70
2022/04/22 11:13:40;;;;;;;;;5.67;5.67;;;;;24.31;26.67;99880.59;5076128;28;46432;-69
2022/04/22 11:16:07;;;;;;;;;6.00;6.00;;;;;24.36;26.15;99894.53;5076937;27;45354;-69
2022/04/22 11:18:39;;;;;;;;;6.33;6.33;;;;;24.42;25.72;99887.91;5074607;28;45371;-70
2022/04/22 11:21:10;;;;;;;;;4.33;4.33;;;;;24.67;26.02;99890.16;5065190;27;45185;-70
2022/04/22 11:23:42;;;;;;;;;4.67;2.00;;;;;24.84;26.02;99880.59;5071805;28;45369;-70
2022/04/22 11:26:12;;;;;;;;;5.67;5.00;;;;;25.06;25.84;99885.28;5063824;27;45355;-70
2022/04/22 11:28:38;;;;;;;;;9.00;7.33;;;;;25.07;25.51;99878.63;5078890;27;45419;-71
2022/04/22 11:31:07;;;;;;;;;7.00;5.00;;;;;25.10;25.66;99878.09;5065197;27;45243;-71
2022/04/22 11:33:56;;;;;;;;;8.00;6.00;;;;;24.97;26.46;99867.44;5068538;28;45507;-69
2022/04/22 11:36:25;;;;;;;;;9.00;5.33;;;;;24.90;26.15;99880.66;5062815;28;45188;-69
2022/04/22 11:38:52;;;;;;;;;9.33;7.67;;;;;24.93;26.52;99880.16;5067778;28;45304;-70
2022/04/22 11:41:18;;;;;;;;;6.67;6.33;;;;;24.85;25.62;99878.66;5071162;27;45353;-70
2022/04/22 11:43:44;;;;;;;;;5.33;5.33;;;;;25.14;25.98;99877.31;5071742;27;45393;-69
2022/04/22 11:46:17;;;;;;;;;7.33;6.00;;;;;25.30;25.07;99877.44;5072617;28;45333;-69
2022/04/22 11:48:46;;;;;;;;;6.33;6.33;;;;;25.07;25.21;99873.06;5069195;28;45567;-69
2022/04/22 11:51:12;;;;;;;;;6.00;5.33;;;;;25.39;25.70;99873.91;5070407;28;45520;-70
2022/04/22 11:53:45;;;;;;;;;8.00;6.33;;;;;25.58;24.71;99860.41;5068737;28;45486;-70
2022/04/22 11:56:15;;;;;;;;;9.33;7.67;;;;;25.24;24.75;99856.25;5069566;28;45931;-70
2022/04/22 11:58:40;;;;;;;;;6.33;5.00;;;;;25.38;25.70;99863.88;5066689;28;45492;-70
2022/04/22 12:06:38;;;;;;;;;6.33;6.33;;;;;25.62;24.62;99847.66;5062178;28;45413;-69
2022/04/22 12:09:06;;;;;;;;;9.67;5.67;;;;;25.68;24.82;99862.44;5073651;28;45513;-69
2022/04/22 12:11:42;;;;;;;;;5.67;4.33;;;;;25.76;25.19;99856.38;5078170;27;45533;-71
2022/04/22 12:14:11;;;;;;;;;5.33;5.33;;;;;25.69;24.74;99853.84;5073084;28;45432;-70
2022/04/22 12:16:38;;;;;;;;;7.00;7.00;;;;;25.12;24.91;99850.88;5060818;28;45983;-70
2022/04/22 12:19:05;;;;;;;;;4.67;4.67;;;;;25.23;24.87;99855.41;5073941;28;45419;-70
2022/04/22 12:21:35;;;;;;;;;8.00;8.00;;;;;25.24;24.77;99854.31;5062965;28;45586;-70